sensor_id;sensor_type;location;lat;lon;timestamp;pressure;altitude;pressure_sealevel;temperature;humidity
6567;BME280;3317;43.994;22.878;2023-07-31T00:02:02;100385.81;;;27.89;55.90
6567;BME280;3317;43.994;22.878;2023-07-31T00:04:29;100389.97;;;27.81;56.80
6567;BME280;3317;43.994;22.878;2023-07-31T00:06:57;100390.84;;;27.81;56.70
6567;BME280;3317;43.994;22.878;2023-07-31T00:09:24;100388.06;;;27.81;56.45
6567;BME280;3317;43.994;22.878;2023-07-31T00:11:51;100381.09;;;27.79;55.88
6567;BME280;3317;43.994;22.878;2023-07-31T00:14:18;100371.63;;;27.75;56.82
6567;BME280;3317;43.994;22.878;2023-07-31T00:16:45;100383.31;;;27.72;56.62
6567;BME280;3317;43.994;22.878;2023-07-31T00:19:12;100388.31;;;27.64;57.04
6567;BME280;3317;43.994;22.878;2023-07-31T00:21:38;100384.13;;;27.62;56.62
6567;BME280;3317;43.994;22.878;2023-07-31T00:24:07;100376.91;;;27.61;56.50
6567;BME280;3317;43.994;22.878;2023-07-31T00:26:34;100382.19;;;27.62;55.96
6567;BME280;3317;43.994;22.878;2023-07-31T00:29:00;100358.50;;;27.44;56.78
6567;BME280;3317;43.994;22.878;2023-07-31T00:31:27;100379.97;;;27.59;56.51
6567;BME280;3317;43.994;22.878;2023-07-31T00:33:54;100378.56;;;27.62;56.48
6567;BME280;3317;43.994;22.878;2023-07-31T00:36:21;100379.69;;;27.61;56.20
6567;BME280;3317;43.994;22.878;2023-07-31T00:38:48;100385.25;;;27.61;56.37
6567;BME280;3317;43.994;22.878;2023-07-31T00:41:17;100379.97;;;27.59;56.14
6567;BME280;3317;43.994;22.878;2023-07-31T00:43:44;100378.56;;;27.57;56.64
6567;BME280;3317;43.994;22.878;2023-07-31T00:46:11;100378.28;;;27.53;56.40
6567;BME280;3317;43.994;22.878;2023-07-31T00:48:39;100372.72;;;27.53;56.29
6567;BME280;3317;43.994;22.878;2023-07-31T00:51:07;100371.28;;;27.50;56.02
6567;BME280;3317;43.994;22.878;2023-07-31T00:53:34;100352.09;;;27.38;55.70
6567;BME280;3317;43.994;22.878;2023-07-31T00:56:03;100371.56;;;27.38;56.62
6567;BME280;3317;43.994;22.878;2023-07-31T00:58:31;100376.84;;;27.35;56.96
6567;BME280;3317;43.994;22.878;2023-07-31T01:00:58;100364.88;;;27.24;57.24
6567;BME280;3317;43.994;22.878;2023-07-31T01:03:25;100364.84;;;27.19;57.19
6567;BME280;3317;43.994;22.878;2023-07-31T01:06:02;100369.28;;;27.15;57.16
6567;BME280;3317;43.994;22.878;2023-07-31T01:08:37;100343.44;;;27.04;57.25
6567;BME280;3317;43.994;22.878;2023-07-31T01:11:16;100357.31;;;27.09;57.00
6567;BME280;3317;43.994;22.878;2023-07-31T01:13:45;100355.38;;;27.04;57.07
6567;BME280;3317;43.994;22.878;2023-07-31T01:16:12;100352.59;;;26.99;57.53
6567;BME280;3317;43.994;22.878;2023-07-31T01:18:39;100358.66;;;26.91;57.96
6567;BME280;3317;43.994;22.878;2023-07-31T01:21:21;100362.28;;;26.91;57.40
6567;BME280;3317;43.994;22.878;2023-07-31T01:24:22;100360.34;;;26.92;57.97
6567;BME280;3317;43.994;22.878;2023-07-31T01:26:56;100360.00;;;26.83;58.34
6567;BME280;3317;43.994;22.878;2023-07-31T01:29:29;100356.41;;;26.82;57.60
6567;BME280;3317;43.994;22.878;2023-07-31T01:32:02;100361.66;;;26.79;57.89
6567;BME280;3317;43.994;22.878;2023-07-31T01:34:29;100355.25;;;26.78;57.76
6567;BME280;3317;43.994;22.878;2023-07-31T01:36:57;100358.03;;;26.78;58.45
6567;BME280;3317;43.994;22.878;2023-07-31T01:39:24;100359.69;;;26.79;57.00
6567;BME280;3317;43.994;22.878;2023-07-31T01:41:52;100358.03;;;26.78;57.66
6567;BME280;3317;43.994;22.878;2023-07-31T01:44:19;100348.59;;;26.79;57.53
6567;BME280;3317;43.994;22.878;2023-07-31T01:46:46;100345.81;;;26.79;57.33
6567;BME280;3317;43.994;22.878;2023-07-31T01:49:13;100348.59;;;26.79;57.12
6567;BME280;3317;43.994;22.878;2023-07-31T01:51:40;100350.00;;;26.77;57.18
6567;BME280;3317;43.994;22.878;2023-07-31T01:54:07;100352.47;;;26.73;57.79
6567;BME280;3317;43.994;22.878;2023-07-31T01:56:34;100349.69;;;26.73;57.59
6567;BME280;3317;43.994;22.878;2023-07-31T01:59:02;100359.69;;;26.74;56.85
6567;BME280;3317;43.994;22.878;2023-07-31T02:01:29;100376.13;;;26.76;57.21
6567;BME280;3317;43.994;22.878;2023-07-31T02:03:56;100372.22;;;26.77;56.42
6567;BME280;3317;43.994;22.878;2023-07-31T02:06:23;100368.88;;;26.75;56.86
6567;BME280;3317;43.994;22.878;2023-07-31T02:08:50;100370.25;;;26.72;56.07
6567;BME280;3317;43.994;22.878;2023-07-31T02:11:17;100368.84;;;26.69;56.27
6567;BME280;3317;43.994;22.878;2023-07-31T02:13:45;100385.56;;;26.75;55.40
6567;BME280;3317;43.994;22.878;2023-07-31T02:16:14;100388.03;;;26.76;55.08
6567;BME280;3317;43.994;22.878;2023-07-31T02:18:41;100383.84;;;26.74;55.02
6567;BME280;3317;43.994;22.878;2023-07-31T02:21:08;100388.00;;;26.66;55.73
6567;BME280;3317;43.994;22.878;2023-07-31T02:23:35;100395.53;;;26.70;55.22
6567;BME280;3317;43.994;22.878;2023-07-31T02:26:02;100398.59;;;26.69;55.79
6567;BME280;3317;43.994;22.878;2023-07-31T02:28:29;100407.50;;;26.71;55.32
6567;BME280;3317;43.994;22.878;2023-07-31T02:30:56;100402.47;;;26.68;55.58
6567;BME280;3317;43.994;22.878;2023-07-31T02:33:27;100403.56;;;26.67;55.09
6567;BME280;3317;43.994;22.878;2023-07-31T02:35:54;100406.63;;;26.65;55.62
6567;BME280;3317;43.994;22.878;2023-07-31T02:38:21;100412.13;;;26.60;55.61
6567;BME280;3317;43.994;22.878;2023-07-31T02:40:48;100406.31;;;26.56;55.43
6567;BME280;3317;43.994;22.878;2023-07-31T02:43:15;100412.97;;;26.55;55.37
6567;BME280;3317;43.994;22.878;2023-07-31T02:45:42;100410.44;;;26.49;56.11
6567;BME280;3317;43.994;22.878;2023-07-31T02:48:09;100409.84;;;26.47;55.41
6567;BME280;3317;43.994;22.878;2023-07-31T02:50:37;100412.34;;;26.43;55.21
6567;BME280;3317;43.994;22.878;2023-07-31T02:53:04;100412.59;;;26.41;54.87
6567;BME280;3317;43.994;22.878;2023-07-31T02:55:31;100411.75;;;26.36;55.41
6567;BME280;3317;43.994;22.878;2023-07-31T02:57:58;100420.31;;;26.34;55.41
6567;BME280;3317;43.994;22.878;2023-07-31T03:00:25;100425.00;;;26.28;55.47
6567;BME280;3317;43.994;22.878;2023-07-31T03:02:52;100420.00;;;26.25;55.21
6567;BME280;3317;43.994;22.878;2023-07-31T03:05:19;100423.31;;;26.22;55.65
6567;BME280;3317;43.994;22.878;2023-07-31T03:07:47;100425.44;;;26.15;56.27
6567;BME280;3317;43.994;22.878;2023-07-31T03:10:14;100424.88;;;26.13;55.29
6567;BME280;3317;43.994;22.878;2023-07-31T03:12:41;100425.94;;;26.07;55.78
6567;BME280;3317;43.994;22.878;2023-07-31T03:15:09;100426.78;;;26.07;55.72
6567;BME280;3317;43.994;22.878;2023-07-31T03:17:36;100419.53;;;26.01;55.17
6567;BME280;3317;43.994;22.878;2023-07-31T03:20:04;100407.50;;;25.90;55.56
6567;BME280;3317;43.994;22.878;2023-07-31T03:22:31;100423.63;;;25.93;54.88
6567;BME280;3317;43.994;22.878;2023-07-31T03:24:59;100424.44;;;25.94;55.32
6567;BME280;3317;43.994;22.878;2023-07-31T03:27:26;100423.56;;;25.88;55.41
6567;BME280;3317;43.994;22.878;2023-07-31T03:29:53;100429.66;;;25.85;54.95
6567;BME280;3317;43.994;22.878;2023-07-31T03:32:20;100435.75;;;25.82;54.84
6567;BME280;3317;43.994;22.878;2023-07-31T03:34:47;100436.28;;;25.79;55.41
6567;BME280;3317;43.994;22.878;2023-07-31T03:37:13;100430.44;;;25.80;54.42
6567;BME280;3317;43.994;22.878;2023-07-31T03:39:40;100437.94;;;25.80;54.02
6567;BME280;3317;43.994;22.878;2023-07-31T03:42:09;100431.81;;;25.78;54.67
6567;BME280;3317;43.994;22.878;2023-07-31T03:44:35;100434.53;;;25.72;55.18
6567;BME280;3317;43.994;22.878;2023-07-31T03:47:03;100445.06;;;25.70;54.96
6567;BME280;3317;43.994;22.878;2023-07-31T03:49:30;100441.72;;;25.68;54.79
6567;BME280;3317;43.994;22.878;2023-07-31T03:51:56;100449.47;;;25.66;54.83
6567;BME280;3317;43.994;22.878;2023-07-31T03:54:23;100445.28;;;25.64;54.87
6567;BME280;3317;43.994;22.878;2023-07-31T03:56:50;100441.66;;;25.63;54.89
6567;BME280;3317;43.994;22.878;2023-07-31T03:59:18;100441.09;;;25.61;55.08
6567;BME280;3317;43.994;22.878;2023-07-31T04:01:45;100444.13;;;25.59;54.50
6567;BME280;3317;43.994;22.878;2023-07-31T04:04:12;100454.94;;;25.61;54.77
6567;BME280;3317;43.994;22.878;2023-07-31T04:06:39;100451.34;;;25.61;54.39
6567;BME280;3317;43.994;22.878;2023-07-31T04:09:06;100452.19;;;25.61;54.66
6567;BME280;3317;43.994;22.878;2023-07-31T04:11:33;100453.28;;;25.60;54.55
6567;BME280;3317;43.994;22.878;2023-07-31T04:14:00;100465.28;;;25.66;54.10
6567;BME280;3317;43.994;22.878;2023-07-31T04:16:28;100457.53;;;25.68;54.73
6567;BME280;3317;43.994;22.878;2023-07-31T04:18:55;100464.50;;;25.70;54.83
6567;BME280;3317;43.994;22.878;2023-07-31T04:21:22;100416.78;;;25.46;55.28
6567;BME280;3317;43.994;22.878;2023-07-31T04:23:49;100459.19;;;25.69;55.26
6567;BME280;3317;43.994;22.878;2023-07-31T04:26:16;100458.94;;;25.70;54.53
6567;BME280;3317;43.994;22.878;2023-07-31T04:28:44;100441.09;;;25.61;55.23
6567;BME280;3317;43.994;22.878;2023-07-31T04:31:11;100455.59;;;25.68;55.25
6567;BME280;3317;43.994;22.878;2023-07-31T04:33:39;100462.56;;;25.71;55.36
6567;BME280;3317;43.994;22.878;2023-07-31T04:36:06;100450.03;;;25.68;55.35
6567;BME280;3317;43.994;22.878;2023-07-31T04:38:33;100461.13;;;25.68;54.91
6567;BME280;3317;43.994;22.878;2023-07-31T04:41:00;100466.16;;;25.71;54.91
6567;BME280;3317;43.994;22.878;2023-07-31T04:43:27;100478.94;;;25.72;55.35
6567;BME280;3317;43.994;22.878;2023-07-31T04:45:54;100471.13;;;25.69;55.49
6567;BME280;3317;43.994;22.878;2023-07-31T04:48:21;100470.94;;;25.76;54.96
6567;BME280;3317;43.994;22.878;2023-07-31T04:50:49;100476.47;;;25.76;55.59
6567;BME280;3317;43.994;22.878;2023-07-31T04:53:16;100466.19;;;25.77;55.06
6567;BME280;3317;43.994;22.878;2023-07-31T04:55:43;100467.03;;;25.77;55.60
6567;BME280;3317;43.994;22.878;2023-07-31T04:58:10;100470.69;;;25.78;55.53
6567;BME280;3317;43.994;22.878;2023-07-31T05:00:37;100470.69;;;25.78;55.44
6567;BME280;3317;43.994;22.878;2023-07-31T05:03:04;100416.72;;;25.41;55.55
6567;BME280;3317;43.994;22.878;2023-07-31T05:05:32;100483.75;;;25.82;55.91
6567;BME280;3317;43.994;22.878;2023-07-31T05:08:00;100487.69;;;25.86;56.17
6567;BME280;3317;43.994;22.878;2023-07-31T05:10:27;100487.19;;;25.95;56.10
6567;BME280;3317;43.994;22.878;2023-07-31T05:12:54;100497.50;;;25.99;56.42
6567;BME280;3317;43.994;22.878;2023-07-31T05:15:21;100495.94;;;26.09;56.63
6567;BME280;3317;43.994;22.878;2023-07-31T05:17:48;100501.00;;;26.17;56.13
6567;BME280;3317;43.994;22.878;2023-07-31T05:20:15;100494.44;;;26.28;56.20
6567;BME280;3317;43.994;22.878;2023-07-31T05:22:42;100503.97;;;26.38;55.72
6567;BME280;3317;43.994;22.878;2023-07-31T05:25:10;100498.50;;;26.48;55.73
6567;BME280;3317;43.994;22.878;2023-07-31T05:27:37;100492.69;;;26.55;55.29
6567;BME280;3317;43.994;22.878;2023-07-31T05:30:05;100492.22;;;26.63;54.55
6567;BME280;3317;43.994;22.878;2023-07-31T05:32:33;100496.72;;;26.75;54.96
6567;BME280;3317;43.994;22.878;2023-07-31T05:35:00;100489.31;;;26.91;54.21
6567;BME280;3317;43.994;22.878;2023-07-31T05:37:27;100489.94;;;27.03;54.06
6567;BME280;3317;43.994;22.878;2023-07-31T05:39:54;100482.22;;;27.16;53.65
6567;BME280;3317;43.994;22.878;2023-07-31T05:42:22;100490.03;;;27.29;52.79
6567;BME280;3317;43.994;22.878;2023-07-31T05:44:49;100501.50;;;27.43;52.21
6567;BME280;3317;43.994;22.878;2023-07-31T05:47:16;100490.72;;;27.57;52.22
6567;BME280;3317;43.994;22.878;2023-07-31T05:49:43;100507.72;;;27.71;51.92
6567;BME280;3317;43.994;22.878;2023-07-31T05:52:10;100498.03;;;27.89;51.97
6567;BME280;3317;43.994;22.878;2023-07-31T05:54:37;100504.72;;;28.04;51.43
6567;BME280;3317;43.994;22.878;2023-07-31T05:57:05;100496.38;;;28.14;50.70
6567;BME280;3317;43.994;22.878;2023-07-31T05:59:33;100502.25;;;28.33;50.54
6567;BME280;3317;43.994;22.878;2023-07-31T06:02:00;100504.16;;;28.48;50.16
6567;BME280;3317;43.994;22.878;2023-07-31T06:04:27;100500.53;;;28.58;49.67
6567;BME280;3317;43.994;22.878;2023-07-31T06:06:54;100505.22;;;28.73;49.04
6567;BME280;3317;43.994;22.878;2023-07-31T06:09:21;100502.16;;;28.90;48.97
6567;BME280;3317;43.994;22.878;2023-07-31T06:11:48;100493.47;;;29.07;48.45
6567;BME280;3317;43.994;22.878;2023-07-31T06:14:15;100495.63;;;29.21;48.13
6567;BME280;3317;43.994;22.878;2023-07-31T06:16:43;100503.38;;;29.40;48.00
6567;BME280;3317;43.994;22.878;2023-07-31T06:19:10;100497.75;;;29.50;47.64
6567;BME280;3317;43.994;22.878;2023-07-31T06:21:38;100507.19;;;29.59;46.99
6567;BME280;3317;43.994;22.878;2023-07-31T06:24:08;100504.59;;;29.73;47.40
6567;BME280;3317;43.994;22.878;2023-07-31T06:26:35;100503.97;;;29.82;46.75
6567;BME280;3317;43.994;22.878;2023-07-31T06:29:02;100509.69;;;30.01;46.60
6567;BME280;3317;43.994;22.878;2023-07-31T06:31:29;100500.16;;;30.12;46.07
6567;BME280;3317;43.994;22.878;2023-07-31T06:33:58;100501.13;;;30.27;45.88
6567;BME280;3317;43.994;22.878;2023-07-31T06:36:25;100496.53;;;30.41;45.58
6567;BME280;3317;43.994;22.878;2023-07-31T06:38:52;100500.63;;;30.49;45.40
6567;BME280;3317;43.994;22.878;2023-07-31T06:41:19;100497.50;;;30.56;45.22
6567;BME280;3317;43.994;22.878;2023-07-31T06:43:46;100494.34;;;30.68;45.03
6567;BME280;3317;43.994;22.878;2023-07-31T06:46:13;100497.81;;;30.84;44.99
6567;BME280;3317;43.994;22.878;2023-07-31T06:48:40;100500.47;;;30.94;44.66
6567;BME280;3317;43.994;22.878;2023-07-31T06:51:08;100497.56;;;31.04;43.82
6567;BME280;3317;43.994;22.878;2023-07-31T06:53:35;100496.38;;;31.11;44.17
6567;BME280;3317;43.994;22.878;2023-07-31T06:56:02;100486.75;;;31.22;44.37
6567;BME280;3317;43.994;22.878;2023-07-31T06:58:29;100489.09;;;31.34;43.18
6567;BME280;3317;43.994;22.878;2023-07-31T07:00:56;100494.81;;;31.48;43.12
6567;BME280;3317;43.994;22.878;2023-07-31T07:03:23;100487.16;;;31.54;42.83
6567;BME280;3317;43.994;22.878;2023-07-31T07:05:50;100495.94;;;31.66;42.65
6567;BME280;3317;43.994;22.878;2023-07-31T07:08:18;100496.63;;;31.77;42.59
6567;BME280;3317;43.994;22.878;2023-07-31T07:10:46;100501.19;;;31.92;42.61
6567;BME280;3317;43.994;22.878;2023-07-31T07:13:13;100501.75;;;32.08;42.40
6567;BME280;3317;43.994;22.878;2023-07-31T07:15:40;100506.53;;;32.08;40.58
6567;BME280;3317;43.994;22.878;2023-07-31T07:18:07;100502.72;;;32.17;41.13
6567;BME280;3317;43.994;22.878;2023-07-31T07:20:36;100516.78;;;32.31;40.72
6567;BME280;3317;43.994;22.878;2023-07-31T07:23:03;100511.41;;;32.35;40.55
6567;BME280;3317;43.994;22.878;2023-07-31T07:25:31;100519.56;;;32.51;40.38
6567;BME280;3317;43.994;22.878;2023-07-31T07:27:58;100510.53;;;32.54;39.71
6567;BME280;3317;43.994;22.878;2023-07-31T07:30:25;100518.22;;;32.62;39.11
6567;BME280;3317;43.994;22.878;2023-07-31T07:32:52;100510.69;;;32.77;39.04
6567;BME280;3317;43.994;22.878;2023-07-31T07:35:18;100514.50;;;32.81;38.68
6567;BME280;3317;43.994;22.878;2023-07-31T07:37:48;100507.91;;;32.91;38.01
6567;BME280;3317;43.994;22.878;2023-07-31T07:40:15;100497.78;;;32.90;37.71
6567;BME280;3317;43.994;22.878;2023-07-31T07:42:44;100516.41;;;32.99;38.15
6567;BME280;3317;43.994;22.878;2023-07-31T07:45:11;100514.44;;;33.14;38.09
6567;BME280;3317;43.994;22.878;2023-07-31T07:47:38;100518.16;;;33.23;38.06
6567;BME280;3317;43.994;22.878;2023-07-31T07:50:06;100516.28;;;33.33;37.60
6567;BME280;3317;43.994;22.878;2023-07-31T07:52:33;100522.50;;;33.43;37.43
6567;BME280;3317;43.994;22.878;2023-07-31T07:55:00;100511.94;;;33.54;36.80
6567;BME280;3317;43.994;22.878;2023-07-31T07:57:27;100510.66;;;33.61;36.77
6567;BME280;3317;43.994;22.878;2023-07-31T07:59:55;100507.72;;;33.66;36.63
6567;BME280;3317;43.994;22.878;2023-07-31T08:02:22;100510.53;;;33.66;36.61
6567;BME280;3317;43.994;22.878;2023-07-31T08:04:49;100515.91;;;33.76;36.73
6567;BME280;3317;43.994;22.878;2023-07-31T08:07:16;100518.91;;;33.80;36.29
6567;BME280;3317;43.994;22.878;2023-07-31T08:09:43;100514.66;;;33.82;36.13
6567;BME280;3317;43.994;22.878;2023-07-31T08:12:10;100520.44;;;33.86;36.13
6567;BME280;3317;43.994;22.878;2023-07-31T08:14:37;100512.09;;;33.95;36.07
6567;BME280;3317;43.994;22.878;2023-07-31T08:17:05;100505.72;;;34.03;36.07
6567;BME280;3317;43.994;22.878;2023-07-31T08:19:32;100507.09;;;34.06;35.80
6567;BME280;3317;43.994;22.878;2023-07-31T08:21:59;100519.94;;;34.21;35.38
6567;BME280;3317;43.994;22.878;2023-07-31T08:24:26;100512.91;;;34.32;35.53
6567;BME280;3317;43.994;22.878;2023-07-31T08:26:53;100502.19;;;34.43;35.44
6567;BME280;3317;43.994;22.878;2023-07-31T08:29:20;100513.53;;;34.52;35.05
6567;BME280;3317;43.994;22.878;2023-07-31T08:31:47;100507.75;;;34.57;34.90
6567;BME280;3317;43.994;22.878;2023-07-31T08:34:15;100515.91;;;34.67;34.85
6567;BME280;3317;43.994;22.878;2023-07-31T08:36:42;100504.19;;;34.74;34.60
6567;BME280;3317;43.994;22.878;2023-07-31T08:39:09;100497.47;;;34.84;33.93
6567;BME280;3317;43.994;22.878;2023-07-31T08:41:37;100505.59;;;34.94;33.72
6567;BME280;3317;43.994;22.878;2023-07-31T08:44:05;100499.88;;;35.08;33.36
6567;BME280;3317;43.994;22.878;2023-07-31T08:46:33;100497.59;;;35.19;33.54
6567;BME280;3317;43.994;22.878;2023-07-31T08:49:02;100499.97;;;35.44;32.57
6567;BME280;3317;43.994;22.878;2023-07-31T08:51:33;100497.16;;;35.52;32.72
6567;BME280;3317;43.994;22.878;2023-07-31T08:54:00;100507.47;;;35.66;32.22
6567;BME280;3317;43.994;22.878;2023-07-31T08:56:30;100509.44;;;35.92;32.99
6567;BME280;3317;43.994;22.878;2023-07-31T08:58:58;100513.91;;;36.02;32.27
6567;BME280;3317;43.994;22.878;2023-07-31T09:01:29;100500.97;;;36.01;32.35
6567;BME280;3317;43.994;22.878;2023-07-31T09:03:57;100521.91;;;36.08;32.02
6567;BME280;3317;43.994;22.878;2023-07-31T09:06:27;100511.78;;;36.07;31.39
6567;BME280;3317;43.994;22.878;2023-07-31T09:08:56;100510.59;;;36.17;31.22
6567;BME280;3317;43.994;22.878;2023-07-31T09:11:24;100506.63;;;36.18;31.66
6567;BME280;3317;43.994;22.878;2023-07-31T09:13:52;100510.94;;;36.25;31.30
6567;BME280;3317;43.994;22.878;2023-07-31T09:16:27;100516.72;;;36.37;31.60
6567;BME280;3317;43.994;22.878;2023-07-31T09:18:56;100520.47;;;36.50;32.51
6567;BME280;3317;43.994;22.878;2023-07-31T09:21:24;100511.88;;;36.55;31.03
6567;BME280;3317;43.994;22.878;2023-07-31T09:23:53;100520.16;;;36.52;30.88
6567;BME280;3317;43.994;22.878;2023-07-31T09:26:31;100510.84;;;36.51;31.03
6567;BME280;3317;43.994;22.878;2023-07-31T09:28:59;100466.47;;;36.30;30.89
6567;BME280;3317;43.994;22.878;2023-07-31T09:31:32;100503.06;;;36.48;31.04
6567;BME280;3317;43.994;22.878;2023-07-31T09:33:59;100493.59;;;36.53;30.29
6567;BME280;3317;43.994;22.878;2023-07-31T09:36:29;100501.41;;;36.47;30.67
6567;BME280;3317;43.994;22.878;2023-07-31T09:39:01;100509.19;;;36.50;30.21
6567;BME280;3317;43.994;22.878;2023-07-31T09:41:28;100502.25;;;36.47;29.75
6567;BME280;3317;43.994;22.878;2023-07-31T09:43:56;100496.94;;;36.46;30.32
6567;BME280;3317;43.994;22.878;2023-07-31T09:46:26;100497.59;;;36.52;30.56
6567;BME280;3317;43.994;22.878;2023-07-31T09:49:06;100496.72;;;36.69;30.75
6567;BME280;3317;43.994;22.878;2023-07-31T09:51:34;100495.03;;;36.76;30.12
6567;BME280;3317;43.994;22.878;2023-07-31T09:54:09;100499.81;;;36.85;30.57
6567;BME280;3317;43.994;22.878;2023-07-31T09:56:40;100492.88;;;37.12;30.79
6567;BME280;3317;43.994;22.878;2023-07-31T09:59:11;100488.50;;;37.24;29.99
6567;BME280;3317;43.994;22.878;2023-07-31T10:01:39;100483.69;;;37.24;29.20
6567;BME280;3317;43.994;22.878;2023-07-31T10:04:07;100491.78;;;37.26;29.27
6567;BME280;3317;43.994;22.878;2023-07-31T10:06:36;100492.16;;;37.45;29.97
6567;BME280;3317;43.994;22.878;2023-07-31T10:09:06;100487.28;;;37.55;29.48
6567;BME280;3317;43.994;22.878;2023-07-31T10:11:36;100488.13;;;37.76;29.96
6567;BME280;3317;43.994;22.878;2023-07-31T10:14:05;100487.84;;;37.90;29.45
6567;BME280;3317;43.994;22.878;2023-07-31T10:16:37;100480.94;;;38.00;29.13
6567;BME280;3317;43.994;22.878;2023-07-31T10:19:05;100486.88;;;38.08;28.81
6567;BME280;3317;43.994;22.878;2023-07-31T10:21:34;100486.16;;;38.11;28.39
6567;BME280;3317;43.994;22.878;2023-07-31T10:24:03;100488.91;;;38.20;28.36
6567;BME280;3317;43.994;22.878;2023-07-31T10:26:31;100486.63;;;38.13;28.39
6567;BME280;3317;43.994;22.878;2023-07-31T10:28:59;100473.19;;;38.10;28.59
6567;BME280;3317;43.994;22.878;2023-07-31T10:31:27;100489.84;;;38.24;28.63
6567;BME280;3317;43.994;22.878;2023-07-31T10:33:57;100487.16;;;38.27;28.64
6567;BME280;3317;43.994;22.878;2023-07-31T10:36:25;100473.31;;;38.13;27.92
6567;BME280;3317;43.994;22.878;2023-07-31T10:38:52;100484.41;;;38.18;28.22
6567;BME280;3317;43.994;22.878;2023-07-31T10:41:19;100478.16;;;38.13;27.75
6567;BME280;3317;43.994;22.878;2023-07-31T10:43:46;100477.13;;;38.30;28.51
6567;BME280;3317;43.994;22.878;2023-07-31T10:46:14;100468.13;;;38.49;28.90
6567;BME280;3317;43.994;22.878;2023-07-31T10:48:41;100473.06;;;38.52;28.30
6567;BME280;3317;43.994;22.878;2023-07-31T10:51:11;100455.91;;;38.36;28.37
6567;BME280;3317;43.994;22.878;2023-07-31T10:53:39;100468.28;;;38.31;28.09
6567;BME280;3317;43.994;22.878;2023-07-31T10:56:08;100469.00;;;38.28;28.59
6567;BME280;3317;43.994;22.878;2023-07-31T10:58:36;100466.13;;;38.16;28.66
6567;BME280;3317;43.994;22.878;2023-07-31T11:01:04;100436.88;;;37.99;29.00
6567;BME280;3317;43.994;22.878;2023-07-31T11:03:41;100464.75;;;38.22;28.70
6567;BME280;3317;43.994;22.878;2023-07-31T11:06:10;100462.50;;;38.15;28.87
6567;BME280;3317;43.994;22.878;2023-07-31T11:08:42;100451.63;;;38.05;28.83
6567;BME280;3317;43.994;22.878;2023-07-31T11:11:10;100444.81;;;37.85;28.90
6567;BME280;3317;43.994;22.878;2023-07-31T11:13:44;100449.06;;;37.91;29.42
6567;BME280;3317;43.994;22.878;2023-07-31T11:16:12;100451.06;;;37.90;29.55
6567;BME280;3317;43.994;22.878;2023-07-31T11:18:40;100442.06;;;37.76;29.32
6567;BME280;3317;43.994;22.878;2023-07-31T11:21:11;100426.84;;;37.68;29.79
6567;BME280;3317;43.994;22.878;2023-07-31T11:23:38;100452.56;;;37.54;28.69
6567;BME280;3317;43.994;22.878;2023-07-31T11:26:05;100461.84;;;37.55;29.36
6567;BME280;3317;43.994;22.878;2023-07-31T11:28:34;100454.44;;;37.41;29.28
6567;BME280;3317;43.994;22.878;2023-07-31T11:31:02;100454.59;;;37.45;29.39
6567;BME280;3317;43.994;22.878;2023-07-31T11:33:29;100446.81;;;37.42;29.83
6567;BME280;3317;43.994;22.878;2023-07-31T11:35:57;100453.91;;;37.48;29.53
6567;BME280;3317;43.994;22.878;2023-07-31T11:38:27;100448.13;;;37.44;29.72
6567;BME280;3317;43.994;22.878;2023-07-31T11:40:56;100457.91;;;37.47;29.89
6567;BME280;3317;43.994;22.878;2023-07-31T11:43:23;100450.66;;;37.37;29.92
6567;BME280;3317;43.994;22.878;2023-07-31T11:45:53;100450.53;;;37.33;29.99
6567;BME280;3317;43.994;22.878;2023-07-31T11:48:21;100444.94;;;37.25;29.77
6567;BME280;3317;43.994;22.878;2023-07-31T11:50:49;100441.88;;;37.09;30.21
6567;BME280;3317;43.994;22.878;2023-07-31T11:53:20;100447.16;;;36.89;30.89
6567;BME280;3317;43.994;22.878;2023-07-31T11:55:49;100441.84;;;36.87;30.46
6567;BME280;3317;43.994;22.878;2023-07-31T11:58:17;100441.94;;;36.70;30.67
6567;BME280;3317;43.994;22.878;2023-07-31T12:00:46;100434.91;;;36.76;30.66
6567;BME280;3317;43.994;22.878;2023-07-31T12:03:13;100441.72;;;36.75;30.29
6567;BME280;3317;43.994;22.878;2023-07-31T12:05:40;100431.06;;;36.42;30.23
6567;BME280;3317;43.994;22.878;2023-07-31T12:08:10;100424.63;;;36.32;30.43
6567;BME280;3317;43.994;22.878;2023-07-31T12:10:38;100422.66;;;36.24;30.57
6567;BME280;3317;43.994;22.878;2023-07-31T12:13:09;100426.84;;;36.18;30.49
6567;BME280;3317;43.994;22.878;2023-07-31T12:15:40;100418.06;;;36.02;31.36
6567;BME280;3317;43.994;22.878;2023-07-31T12:18:09;100413.94;;;35.90;31.22
6567;BME280;3317;43.994;22.878;2023-07-31T12:20:40;100419.13;;;35.71;31.30
6567;BME280;3317;43.994;22.878;2023-07-31T12:23:13;100413.44;;;35.53;31.68
6567;BME280;3317;43.994;22.878;2023-07-31T12:25:40;100408.66;;;35.45;32.00
6567;BME280;3317;43.994;22.878;2023-07-31T12:28:10;100405.84;;;35.36;32.07
6567;BME280;3317;43.994;22.878;2023-07-31T12:30:40;100410.47;;;35.32;32.40
6567;BME280;3317;43.994;22.878;2023-07-31T12:33:13;100358.59;;;34.97;32.68
6567;BME280;3317;43.994;22.878;2023-07-31T12:35:42;100409.31;;;35.33;32.51
6567;BME280;3317;43.994;22.878;2023-07-31T12:38:10;100400.53;;;35.26;32.35
6567;BME280;3317;43.994;22.878;2023-07-31T12:40:38;100402.38;;;35.30;32.15
6567;BME280;3317;43.994;22.878;2023-07-31T12:43:05;100409.31;;;35.24;32.26
6567;BME280;3317;43.994;22.878;2023-07-31T12:45:34;100401.69;;;35.33;31.94
6567;BME280;3317;43.994;22.878;2023-07-31T12:48:01;100403.34;;;35.34;32.12
6567;BME280;3317;43.994;22.878;2023-07-31T12:50:28;100400.72;;;35.38;31.62
6567;BME280;3317;43.994;22.878;2023-07-31T12:52:56;100381.16;;;35.33;31.81
6567;BME280;3317;43.994;22.878;2023-07-31T12:55:23;100386.13;;;35.27;31.45
6567;BME280;3317;43.994;22.878;2023-07-31T12:57:50;100387.63;;;35.33;31.28
6567;BME280;3317;43.994;22.878;2023-07-31T13:00:18;100392.41;;;35.33;31.48
6567;BME280;3317;43.994;22.878;2023-07-31T13:02:46;100392.59;;;35.36;31.85
6567;BME280;3317;43.994;22.878;2023-07-31T13:05:13;100390.25;;;35.38;31.93